Terminal Aerodrome Forecast
Issued by NWS St Louis, MO

Home | Current Version | Previous Version | Text Only | Print | Product List | Glossary On
Versions: 1 2 3 4 5 6 7 8 9 10 11 12 13 14 15 16 17 18 19 20
000
FTUS43 KLSX 200536
TAFCOU
TAF
KCOU 200536Z 2006/2106 VRB04KT 1/2SM -DZ FG OVC002
     FM200800 VRB04KT 1/4SM FG OVC002
     FM201600 13006KT 1SM BR OVC003
     FM202000 14009KT P6SM OVC010
     FM210000 16008KT P6SM BKN030=

USA.gov is the U.S. government's official web portal to all federal, state and local government web resources and services.